Time;durP1;ratioP1;P1;durP2;ratioP2;P2;SDS_P1;SDS_P2;PMS_P1;PMS_P2;Temp;Humidity;BMP_temperature;BMP_pressure;BME280_temperature;BME280_humidity;BME280_pressure;Samples;Min_cycle;Max_cycle;Signal;HPM_P1;HPM_P2
2021/07/06 00:00:47;;;;;;;15.77;10.63;;;;;;;18.19;100.00;96924.47;4974361;28;20091;-78
2021/07/06 00:03:13;;;;;;;13.52;11.18;;;;;;;18.04;100.00;96917.91;4990908;28;20030;-78
2021/07/06 00:05:38;;;;;;;15.98;11.73;;;;;;;18.01;100.00;96920.94;4990254;28;20019;-78
2021/07/06 00:08:04;;;;;;;18.05;12.80;;;;;;;17.98;100.00;96923.94;4974340;28;20026;-78
2021/07/06 00:10:30;;;;;;;17.13;12.15;;;;;;;17.90;100.00;96924.75;4990576;28;20034;-78
2021/07/06 00:12:55;;;;;;;16.02;12.50;;;;;;;17.86;100.00;96924.19;4990561;28;20033;-78
2021/07/06 00:15:25;;;;;;;18.67;12.35;;;;;;;17.95;100.00;96935.09;5001805;28;20445;-78
2021/07/06 00:17:52;;;;;;;16.20;12.23;;;;;;;17.97;100.00;96933.06;4993856;28;20025;-78
2021/07/06 00:20:19;;;;;;;20.52;12.43;;;;;;;17.94;100.00;96928.81;4977178;28;20030;-79
2021/07/06 00:22:45;;;;;;;17.48;11.77;;;;;;;17.93;100.00;96934.41;4993606;28;20029;-78
2021/07/06 00:25:11;;;;;;;15.15;12.43;;;;;;;17.85;100.00;96922.47;4980453;28;20029;-78
2021/07/06 00:27:37;;;;;;;18.38;13.68;;;;;;;17.85;100.00;96937.88;4997024;28;20088;-78
2021/07/06 00:30:05;;;;;;;19.52;12.70;;;;;;;17.86;100.00;96935.03;5014517;28;20037;-78
2021/07/06 00:32:31;;;;;;;17.67;13.20;;;;;;;17.80;100.00;96924.81;4980371;28;20117;-78
2021/07/06 00:34:57;;;;;;;18.92;13.50;;;;;;;17.78;100.00;96925.97;4996365;28;20029;-78
2021/07/06 00:37:22;;;;;;;21.85;14.02;;;;;;;17.72;100.00;96934.69;4980179;28;20473;-78
2021/07/06 00:39:48;;;;;;;15.50;13.13;;;;;;;17.72;100.00;96938.25;4980214;28;20432;-79
2021/07/06 00:42:13;;;;;;;17.08;13.55;;;;;;;17.69;100.00;96946.66;4996534;28;20417;-78
2021/07/06 00:44:39;;;;;;;22.60;13.00;;;;;;;17.63;100.00;96941.00;4996751;28;20601;-79
2021/07/06 00:47:06;;;;;;;17.70;13.40;;;;;;;17.66;100.00;96949.69;4996972;28;20032;-78
2021/07/06 00:49:32;;;;;;;23.42;12.68;;;;;;;17.64;100.00;96949.00;4991278;28;20462;-78
2021/07/06 00:51:58;;;;;;;14.25;11.48;;;;;;;17.62;100.00;96942.91;4996410;28;20490;-78
2021/07/06 00:54:23;;;;;;;17.52;11.52;;;;;;;17.67;100.00;96945.13;4996512;28;20026;-78
2021/07/06 00:56:49;;;;;;;17.70;11.07;;;;;;;17.53;100.00;96951.91;4996204;28;20030;-78
2021/07/06 00:59:15;;;;;;;19.38;12.35;;;;;;;17.44;100.00;96944.69;4996292;28;20444;-78
2021/07/06 01:01:41;;;;;;;15.90;11.63;;;;;;;17.39;100.00;96936.19;4996436;28;20027;-78
2021/07/06 01:04:07;;;;;;;19.10;13.23;;;;;;;17.39;100.00;96936.19;4995752;28;20104;-78
2021/07/06 01:06:33;;;;;;;17.02;12.55;;;;;;;17.26;100.00;96941.09;4979742;28;20483;-78
2021/07/06 01:08:59;;;;;;;22.50;13.75;;;;;;;17.23;100.00;96958.47;4996088;28;20090;-78
2021/07/06 01:11:24;;;;;;;15.63;12.73;;;;;;;17.17;100.00;96947.41;4996099;28;20104;-78
2021/07/06 01:13:50;;;;;;;23.95;13.68;;;;;;;17.26;100.00;96960.00;4996438;28;20034;-78
2021/07/06 01:16:16;;;;;;;17.00;12.68;;;;;;;17.08;100.00;96949.16;4995568;28;20096;-78
2021/07/06 01:18:42;;;;;;;22.35;14.02;;;;;;;17.05;100.00;96951.28;4980211;28;20041;-78
2021/07/06 01:21:08;;;;;;;20.27;13.45;;;;;;;16.93;100.00;96950.66;4996298;28;20064;-78
2021/07/06 01:23:34;;;;;;;18.13;12.70;;;;;;;17.02;100.00;96954.28;5013576;28;20053;-78
2021/07/06 01:26:03;;;;;;;17.17;13.30;;;;;;;16.94;100.00;96951.50;4995906;28;20100;-77
2021/07/06 01:28:29;;;;;;;18.60;12.85;;;;;;;16.96;100.00;96960.31;4996438;28;20108;-78
2021/07/06 01:30:55;;;;;;;15.18;12.43;;;;;;;16.96;100.00;96944.09;5013458;28;20061;-77
2021/07/06 01:33:29;;;;;;;14.43;11.70;;;;;;;16.98;100.00;96958.31;4979588;28;20030;-78
2021/07/06 01:36:00;;;;;;;17.70;12.32;;;;;;;16.94;100.00;96955.06;4994829;28;20397;-78
2021/07/06 01:38:27;;;;;;;17.38;13.00;;;;;;;16.96;100.00;96963.84;4996253;28;20109;-78
2021/07/06 01:40:53;;;;;;;19.10;12.90;;;;;;;16.90;100.00;96960.91;4996207;28;20030;-79
2021/07/06 01:43:18;;;;;;;17.25;13.25;;;;;;;16.92;100.00;96948.94;4995827;28;20737;-78
2021/07/06 01:45:44;;;;;;;20.23;12.68;;;;;;;16.89;100.00;96946.53;4974135;28;20033;-79
2021/07/06 01:48:10;;;;;;;19.67;13.77;;;;;;;16.92;100.00;96961.63;4995581;28;20033;-78
2021/07/06 01:50:38;;;;;;;19.63;12.45;;;;;;;16.90;100.00;96944.69;4979501;28;20097;-78
2021/07/06 01:53:06;;;;;;;20.55;12.95;;;;;;;16.99;100.00;96943.78;4995515;28;20465;-78
2021/07/06 01:55:34;;;;;;;17.90;12.98;;;;;;;16.91;100.00;96946.41;4979330;28;20026;-78
2021/07/06 01:58:01;;;;;;;20.67;14.10;;;;;;;16.90;100.00;96950.94;4995826;28;20176;-78
2021/07/06 02:00:29;;;;;;;22.42;14.73;;;;;;;16.86;100.00;96965.75;4979340;28;20437;-78
2021/07/06 02:02:56;;;;;;;20.63;14.95;;;;;;;16.77;100.00;96956.69;4995636;28;20032;-79
2021/07/06 02:05:21;;;;;;;21.63;14.35;;;;;;;16.77;100.00;96953.13;4995244;28;20038;-79
2021/07/06 02:07:47;;;;;;;19.33;13.95;;;;;;;16.73;100.00;96949.03;5012885;28;20033;-79
2021/07/06 02:10:15;;;;;;;22.30;14.73;;;;;;;16.78;100.00;96958.38;4995272;28;20101;-79
2021/07/06 02:12:41;;;;;;;21.05;14.25;;;;;;;16.75;100.00;96963.22;4995344;28;20029;-78
2021/07/06 02:15:09;;;;;;;19.70;15.25;;;;;;;16.66;100.00;96959.56;4994518;28;20449;-78
2021/07/06 02:17:35;;;;;;;22.63;15.73;;;;;;;16.58;100.00;96955.91;4976531;28;20030;-78
2021/07/06 02:20:01;;;;;;;21.33;15.07;;;;;;;16.69;100.00;96959.28;4994864;28;20102;-79
2021/07/06 02:22:27;;;;;;;21.77;16.10;;;;;;;16.68;100.00;96965.66;4995054;28;20041;-78
2021/07/06 02:24:52;;;;;;;29.58;15.25;;;;;;;16.72;100.00;96964.38;4978652;28;20030;-79
2021/07/06 02:27:18;;;;;;;21.52;15.50;;;;;;;16.80;100.00;96971.72;4994913;28;20033;-78
2021/07/06 02:29:44;;;;;;;22.38;15.50;;;;;;;16.83;100.00;96976.84;4978879;28;20065;-79
2021/07/06 02:32:09;;;;;;;26.90;16.75;;;;;;;16.75;100.00;96983.00;4994802;28;20068;-78
2021/07/06 02:34:35;;;;;;;26.48;14.95;;;;;;;16.68;100.00;96968.38;4995159;28;20018;-78
2021/07/06 02:37:01;;;;;;;21.92;15.05;;;;;;;16.69;100.00;96975.47;4995026;28;20022;-78
2021/07/06 02:39:27;;;;;;;18.75;14.27;;;;;;;16.72;100.00;96977.88;4994793;28;20108;-78
2021/07/06 02:41:52;;;;;;;23.73;14.57;;;;;;;16.70;100.00;96987.97;4995124;28;20110;-78
2021/07/06 02:44:18;;;;;;;22.98;14.48;;;;;;;16.70;100.00;96982.56;4994741;28;20500;-77
2021/07/06 02:46:43;;;;;;;18.08;14.50;;;;;;;16.76;100.00;96983.84;4994054;28;20033;-78
2021/07/06 02:49:09;;;;;;;19.73;13.55;;;;;;;16.85;100.00;96995.63;5012195;28;20025;-78
2021/07/06 02:51:35;;;;;;;17.60;13.57;;;;;;;16.83;100.00;96986.81;4994044;28;20037;-78
2021/07/06 02:54:01;;;;;;;29.92;13.18;;;;;;;16.79;100.00;96980.84;4994647;28;20026;-78
2021/07/06 02:56:27;;;;;;;18.42;14.07;;;;;;;16.74;100.00;97000.19;4977852;28;20022;-78
2021/07/06 02:58:53;;;;;;;21.80;15.50;;;;;;;16.77;100.00;97002.59;4994508;28;20037;-78
2021/07/06 03:01:18;;;;;;;22.95;14.57;;;;;;;16.83;100.00;97000.31;4978332;28;20113;-78
2021/07/06 03:03:44;;;;;;;26.33;15.27;;;;;;;16.88;100.00;97000.72;4994360;28;20045;-78
2021/07/06 03:06:09;;;;;;;20.67;14.15;;;;;;;16.96;100.00;97003.53;5012198;28;20425;-78
2021/07/06 03:08:35;;;;;;;27.17;15.25;;;;;;;16.91;100.00;97011.25;4978300;28;20066;-78
2021/07/06 03:11:01;;;;;;;33.40;17.73;;;;;;;16.92;100.00;97008.38;4994000;28;20038;-78
2021/07/06 03:13:26;;;;;;;38.15;18.42;;;;;;;16.98;100.00;97013.19;4977702;28;20032;-78
2021/07/06 03:15:52;;;;;;;32.88;17.30;;;;;;;16.99;100.00;97019.44;4993988;28;20426;-78
2021/07/06 03:18:18;;;;;;;29.73;16.48;;;;;;;16.96;100.00;97014.34;4994542;28;20478;-78
2021/07/06 03:20:44;;;;;;;26.48;16.15;;;;;;;16.94;100.00;97013.66;4994078;28;20040;-78
2021/07/06 03:23:09;;;;;;;30.80;15.70;;;;;;;16.94;100.00;97016.34;4994246;28;20113;-78
2021/07/06 03:25:35;;;;;;;32.42;15.48;;;;;;;17.00;100.00;97026.56;4977541;28;20041;-78
2021/07/06 03:28:02;;;;;;;29.42;14.02;;;;;;;17.09;100.00;97028.38;5011486;28;20037;-78
2021/07/06 03:30:30;;;;;;;20.27;14.95;;;;;;;17.19;100.00;97034.59;4978023;28;20033;-78
2021/07/06 03:32:57;;;;;;;25.00;13.80;;;;;;;17.29;100.00;97038.09;4994400;28;20036;-78
2021/07/06 03:35:23;;;;;;;24.77;14.48;;;;;;;17.30;100.00;97050.63;5012054;28;20529;-78
2021/07/06 03:37:49;;;;;;;27.83;14.40;;;;;;;17.29;100.00;97036.25;4991863;28;20033;-78
2021/07/06 03:40:15;;;;;;;28.50;14.27;;;;;;;17.49;100.00;97047.84;4993961;28;20026;-78
2021/07/06 03:42:41;;;;;;;20.65;12.65;;;;;;;17.78;100.00;97032.31;5011669;28;20383;-78
2021/07/06 03:45:09;;;;;;;23.52;13.15;;;;;;;17.98;100.00;97045.72;5011513;28;20028;-78
2021/07/06 03:47:34;;;;;;;22.35;13.95;;;;;;;18.16;100.00;97050.16;4993596;28;20061;-78
2021/07/06 03:50:00;;;;;;;26.77;13.02;;;;;;;18.13;100.00;97044.19;4977883;28;20045;-78
2021/07/06 03:52:26;;;;;;;18.00;12.02;;;;;;;18.13;100.00;97055.03;4994314;28;20049;-78
2021/07/06 03:54:52;;;;;;;30.48;12.15;;;;;;;18.13;100.00;97049.63;4977861;28;20026;-78
2021/07/06 03:57:38;;;;;;;18.05;12.20;;;;;;;18.20;100.00;97056.13;5011372;28;20030;-79
2021/07/06 04:00:12;;;;;;;23.90;12.27;;;;;;;18.08;100.00;97066.34;5000033;28;20520;-79
2021/07/06 04:02:39;;;;;;;22.75;12.25;;;;;;;18.03;100.00;97070.47;4977897;28;20215;-78
2021/07/06 04:05:06;;;;;;;24.35;13.10;;;;;;;17.86;100.00;97078.44;4980570;28;20180;-80
2021/07/06 04:07:32;;;;;;;23.23;13.20;;;;;;;17.90;100.00;97078.13;4996531;28;20037;-79
2021/07/06 04:09:57;;;;;;;21.58;13.75;;;;;;;17.93;100.00;97084.09;4996563;28;20034;-80
2021/07/06 04:12:23;;;;;;;19.65;14.57;;;;;;;17.91;100.00;97082.50;4997041;28;20081;-80
2021/07/06 04:14:49;;;;;;;20.52;14.60;;;;;;;17.90;100.00;97076.28;5013677;28;20429;-79
2021/07/06 04:17:15;;;;;;;20.70;14.90;;;;;;;17.81;100.00;97077.19;4996277;28;20088;-79
2021/07/06 04:19:40;;;;;;;20.65;14.18;;;;;;;17.83;100.00;97086.84;4997642;28;20018;-83
2021/07/06 04:22:06;;;;;;;23.00;14.07;;;;;;;17.90;100.00;97091.66;4981390;28;20029;-84
2021/07/06 04:24:32;;;;;;;27.30;14.77;;;;;;;17.92;100.00;97090.50;4981046;28;20068;-84
2021/07/06 04:26:58;;;;;;;19.15;13.13;;;;;;;18.02;100.00;97093.16;4980491;28;20104;-84
2021/07/06 04:29:24;;;;;;;20.88;14.07;;;;;;;18.09;100.00;97102.38;4981434;28;20482;-79
2021/07/06 04:31:50;;;;;;;28.75;14.82;;;;;;;18.28;100.00;97092.25;4980480;28;20395;-79
2021/07/06 04:34:15;;;;;;;22.85;13.38;;;;;;;18.26;100.00;97096.97;4997013;28;20113;-80
2021/07/06 04:36:41;;;;;;;25.30;14.63;;;;;;;18.31;100.00;97094.66;4980537;28;20107;-79
2021/07/06 04:39:06;;;;;;;25.88;12.80;;;;;;;18.48;100.00;97098.38;4980201;28;20026;-80
2021/07/06 04:41:32;;;;;;;17.15;13.20;;;;;;;18.58;100.00;97098.34;4980133;28;20076;-80
2021/07/06 04:43:58;;;;;;;28.73;19.05;;;;;;;18.63;100.00;97096.84;4996452;28;20038;-79
2021/07/06 04:46:23;;;;;;;22.02;13.45;;;;;;;18.78;100.00;97106.13;4980774;28;20045;-80
2021/07/06 04:48:49;;;;;;;20.85;12.38;;;;;;;19.04;100.00;97106.16;4996175;28;20040;-79
2021/07/06 04:51:15;;;;;;;24.10;12.30;;;;;;;19.17;100.00;97113.88;4980525;28;20025;-82
2021/07/06 04:53:42;;;;;;;21.58;13.75;;;;;;;19.42;100.00;97110.34;4979910;28;20038;-81
2021/07/06 04:56:07;;;;;;;16.75;11.45;;;;;;;21.15;91.91;97115.97;4980696;28;20108;-79
2021/07/06 04:58:35;;;;;;;14.77;10.82;;;;;;;23.21;79.04;97120.00;4996064;28;20557;-79
2021/07/06 05:01:01;;;;;;;18.85;11.98;;;;;;;24.36;71.79;97129.53;4996015;28;20029;-79
2021/07/06 05:03:29;;;;;;;15.32;10.07;;;;;;;25.52;65.38;97132.91;4996150;28;20030;-79
2021/07/06 05:05:54;;;;;;;20.88;12.30;;;;;;;26.02;63.22;97146.38;4994137;28;20117;-80
2021/07/06 05:08:20;;;;;;;16.42;10.77;;;;;;;27.07;58.75;97140.53;4976859;28;20145;-80
2021/07/06 05:10:46;;;;;;;16.50;10.32;;;;;;;27.86;55.20;97139.53;4993970;28;20034;-80
2021/07/06 05:13:12;;;;;;;17.17;9.85;;;;;;;27.92;54.65;97149.69;4993598;28;20425;-80
2021/07/06 05:15:37;;;;;;;23.25;10.68;;;;;;;29.79;49.33;97155.84;5011173;28;20041;-80
2021/07/06 05:18:03;;;;;;;16.80;9.85;;;;;;;30.24;47.09;97162.84;4993564;28;20072;-80
2021/07/06 05:20:28;;;;;;;18.00;9.32;;;;;;;31.56;44.52;97157.38;5010827;28;20076;-80
2021/07/06 05:22:54;;;;;;;11.45;9.30;;;;;;;31.87;43.04;97167.31;4993474;28;20025;-80
2021/07/06 05:25:20;;;;;;;31.42;9.85;;;;;;;32.07;42.26;97170.63;4976823;28;20034;-80
2021/07/06 05:27:45;;;;;;;26.05;9.57;;;;;;;32.84;40.36;97167.69;4976830;28;20042;-80
2021/07/06 05:30:11;;;;;;;24.23;10.05;;;;;;;31.43;42.69;97174.19;4993286;28;20045;-80
2021/07/06 05:32:38;;;;;;;13.88;9.30;;;;;;;32.45;40.92;97174.84;4993388;28;20029;-80
2021/07/06 05:35:05;;;;;;;14.80;9.35;;;;;;;33.11;39.95;97180.78;4992781;28;20053;-80
2021/07/06 05:37:31;;;;;;;18.23;9.68;;;;;;;33.73;39.27;97184.50;4993084;28;20033;-80
2021/07/06 05:39:57;;;;;;;21.33;9.55;;;;;;;35.04;35.95;97188.50;4992970;28;20034;-80
2021/07/06 05:42:22;;;;;;;17.08;9.88;;;;;;;33.96;37.87;97183.53;4993364;28;20032;-81
2021/07/06 05:44:48;;;;;;;19.45;9.48;;;;;;;34.92;36.62;97192.53;4993466;28;20175;-81
2021/07/06 05:47:14;;;;;;;17.75;10.10;;;;;;;34.74;37.28;97196.44;4992678;28;20084;-81
2021/07/06 05:49:40;;;;;;;11.70;8.40;;;;;;;34.34;37.20;97191.09;4976523;28;20045;-81
2021/07/06 05:52:06;;;;;;;20.65;9.50;;;;;;;34.12;38.15;97201.28;4976554;28;20037;-80
2021/07/06 05:54:31;;;;;;;22.48;10.40;;;;;;;33.32;39.39;97198.66;4993022;28;20448;-80
2021/07/06 05:56:57;;;;;;;17.80;10.32;;;;;;;32.82;39.44;97201.22;4993117;28;20026;-81
2021/07/06 05:59:23;;;;;;;16.13;9.45;;;;;;;34.04;38.16;97196.97;4992823;28;20029;-80
2021/07/06 06:01:48;;;;;;;21.90;10.73;;;;;;;35.04;36.24;97207.97;4992612;28;20092;-80
2021/07/06 06:04:15;;;;;;;35.25;9.40;;;;;;;35.32;35.75;97205.03;4992265;28;20127;-81
2021/07/06 06:06:42;;;;;;;16.13;8.55;;;;;;;35.32;34.96;97196.66;4992700;28;20033;-81
2021/07/06 06:09:08;;;;;;;13.93;8.90;;;;;;;35.42;35.22;97207.09;4992456;28;20040;-80
2021/07/06 06:11:33;;;;;;;12.40;8.52;;;;;;;34.87;36.23;97203.56;4992611;28;20029;-81
2021/07/06 06:13:59;;;;;;;9.50;8.07;;;;;;;36.30;33.54;97194.63;4976518;28;20147;-81
2021/07/06 06:16:24;;;;;;;12.50;7.75;;;;;;;37.19;32.47;97200.25;4992513;28;20528;-81
2021/07/06 06:18:54;;;;;;;12.32;7.35;;;;;;;36.43;32.61;97188.59;4992838;28;20121;-81
2021/07/06 06:21:24;;;;;;;14.02;7.35;;;;;;;38.02;31.27;97206.66;5009906;28;20441;-81
2021/07/06 06:23:49;;;;;;;11.07;7.85;;;;;;;36.60;32.75;97200.47;4992460;28;20105;-80
2021/07/06 06:26:15;;;;;;;12.20;8.02;;;;;;;36.57;32.99;97202.94;4991429;28;20125;-81
2021/07/06 06:28:40;;;;;;;16.50;8.43;;;;;;;36.71;33.31;97196.63;4992550;28;20096;-81
2021/07/06 06:31:07;;;;;;;18.08;7.63;;;;;;;38.11;31.07;97189.06;4975944;28;20088;-81
2021/07/06 06:33:32;;;;;;;13.45;7.43;;;;;;;37.76;30.35;97175.88;4983869;28;20102;-81
2021/07/06 06:35:59;;;;;;;16.30;6.50;;;;;;;38.49;30.03;97191.31;4992225;28;20109;-81
2021/07/06 06:38:25;;;;;;;16.50;6.70;;;;;;;38.41;29.10;97182.66;4991525;28;20029;-81
2021/07/06 06:40:50;;;;;;;9.82;6.03;;;;;;;37.75;28.88;97178.91;4991984;28;20092;-81
2021/07/06 06:43:16;;;;;;;18.95;6.35;;;;;;;36.93;30.06;97174.13;4991634;28;20474;-81
2021/07/06 06:45:41;;;;;;;8.05;5.40;;;;;;;38.39;28.37;97179.31;4975525;28;20037;-81
2021/07/06 06:48:07;;;;;;;9.60;5.85;;;;;;;39.26;27.37;97180.78;4992047;28;20511;-81
2021/07/06 06:50:33;;;;;;;6.72;5.20;;;;;;;39.34;26.54;97174.59;4991228;28;20116;-81
2021/07/06 06:52:58;;;;;;;8.10;5.90;;;;;;;40.39;25.34;97163.81;4991893;28;20411;-80
2021/07/06 06:55:24;;;;;;;9.68;5.40;;;;;;;40.32;25.81;97180.97;4991628;28;20122;-80
2021/07/06 06:57:50;;;;;;;8.85;5.65;;;;;;;39.80;26.51;97176.03;4991648;28;20869;-80
2021/07/06 07:00:15;;;;;;;21.38;6.43;;;;;;;38.52;28.69;97178.72;5009049;28;20474;-79
2021/07/06 07:02:43;;;;;;;26.75;7.88;;;;;;;38.83;27.99;97177.56;4975131;28;20068;-80
2021/07/06 07:05:11;;;;;;;17.33;7.35;;;;;;;39.30;28.33;97176.28;4975417;28;20037;-80
2021/07/06 07:07:36;;;;;;;20.00;6.80;;;;;;;40.28;26.30;97176.25;4991461;28;20513;-81
2021/07/06 07:10:04;;;;;;;15.70;7.72;;;;;;;40.62;25.22;97168.66;4991391;28;20109;-82
2021/07/06 07:12:29;;;;;;;21.23;6.82;;;;;;;39.81;26.10;97174.06;4990990;28;20069;-81
2021/07/06 07:14:55;;;;;;;24.23;6.70;;;;;;;38.41;28.28;97177.91;4974898;28;20077;-81
2021/07/06 07:17:22;;;;;;;17.75;6.00;;;;;;;38.40;28.11;97183.75;4990950;28;20026;-82
2021/07/06 07:19:47;;;;;;;13.60;5.70;;;;;;;38.55;28.35;97180.94;4991152;28;20065;-81
2021/07/06 07:22:14;;;;;;;15.38;6.68;;;;;;;38.36;28.91;97189.06;4991265;28;20090;-81
2021/07/06 07:24:39;;;;;;;43.03;6.53;;;;;;;37.12;31.19;97185.69;5008811;28;20482;-81
2021/07/06 07:27:05;;;;;;;8.00;4.97;;;;;;;38.47;27.99;97176.78;4991172;28;20116;-80
2021/07/06 07:29:31;;;;;;;7.90;4.80;;;;;;;37.18;29.10;97173.44;4991233;28;20050;-80
2021/07/06 07:31:57;;;;;;;8.98;5.28;;;;;;;40.25;26.41;97174.03;4991097;28;20042;-81
2021/07/06 07:34:22;;;;;;;8.85;4.70;;;;;;;40.03;26.61;97172.50;4994500;28;20042;-80
2021/07/06 07:36:48;;;;;;;9.13;4.72;;;;;;;40.56;25.97;97167.03;4978934;28;20084;-81
2021/07/06 07:39:14;;;;;;;19.05;5.00;;;;;;;41.00;25.17;97170.53;4978707;28;20034;-81
2021/07/06 07:41:40;;;;;;;7.85;4.78;;;;;;;42.57;23.37;97165.41;4994881;28;20049;-82
2021/07/06 07:44:06;;;;;;;13.95;5.22;;;;;;;41.21;24.96;97162.66;5012561;28;20030;-81
2021/07/06 07:46:31;;;;;;;8.82;5.20;;;;;;;41.77;24.60;97168.41;4978515;28;20029;-81
2021/07/06 07:48:57;;;;;;;9.15;4.60;;;;;;;41.16;27.10;97184.38;4995337;28;20508;-81
2021/07/06 07:51:23;;;;;;;13.90;5.22;;;;;;;42.02;29.63;97192.50;4994848;28;20540;-82
2021/07/06 07:53:48;;;;;;;8.52;5.30;;;;;;;43.43;28.71;97195.59;4994826;28;20543;-82
2021/07/06 07:56:14;;;;;;;13.38;5.07;;;;;;;44.68;30.29;97207.06;4978808;28;20482;-82
2021/07/06 07:58:39;;;;;;;12.65;5.03;;;;;;;45.03;24.12;97177.88;4978430;28;20485;-82
2021/07/06 08:01:05;;;;;;;24.75;5.53;;;;;;;45.40;22.12;97170.06;4994888;28;20022;-82
2021/07/06 08:03:31;;;;;;;4.75;4.35;;;;;;;44.71;23.54;97161.25;4996042;28;20460;-83
2021/07/06 08:05:57;;;;;;;6.32;4.60;;;;;;;45.38;20.28;97166.75;4996494;28;20052;-82
2021/07/06 08:08:23;;;;;;;5.80;4.50;;;;;;;45.71;20.76;97165.19;4997312;28;20022;-81
2021/07/06 08:10:52;;;;;;;9.45;4.55;;;;;;;45.63;21.24;97169.59;5014943;28;20409;-81
2021/07/06 08:13:22;;;;;;;12.43;4.95;;;;;;;45.11;20.69;97164.94;4981470;28;20029;-81
2021/07/06 08:15:48;;;;;;;6.80;4.85;;;;;;;45.33;20.80;97172.53;4980398;28;20585;-81
2021/07/06 08:18:14;;;;;;;13.63;4.50;;;;;;;45.85;19.52;97160.19;4997430;28;20386;-81
2021/07/06 08:20:40;;;;;;;10.10;4.95;;;;;;;46.27;18.94;97167.06;4997022;28;20088;-81
2021/07/06 08:23:05;;;;;;;21.58;4.93;;;;;;;47.17;18.81;97176.38;4981023;28;20021;-82
2021/07/06 08:25:31;;;;;;;6.07;4.22;;;;;;;46.65;17.85;97162.34;4980616;28;20406;-81
2021/07/06 08:27:56;;;;;;;13.07;4.70;;;;;;;43.12;22.61;97166.38;5014420;28;20128;-81
2021/07/06 08:30:22;;;;;;;8.30;4.63;;;;;;;44.47;21.22;97178.50;4996772;28;20608;-81
2021/07/06 08:32:48;;;;;;;36.90;6.93;;;;;;;45.22;20.88;97184.13;4996688;28;20116;-81
2021/07/06 08:35:13;;;;;;;6.15;4.40;;;;;;;45.13;19.14;97171.94;4996867;28;20127;-82
2021/07/06 08:37:39;;;;;;;9.40;4.50;;;;;;;44.68;20.83;97167.53;4996935;28;20041;-81
2021/07/06 08:40:07;;;;;;;11.02;4.63;;;;;;;44.97;19.76;97164.22;4996779;28;20399;-82
2021/07/06 08:42:32;;;;;;;8.25;4.43;;;;;;;44.79;21.82;97171.75;4980318;28;20025;-82
2021/07/06 08:44:58;;;;;;;5.70;4.50;;;;;;;45.03;21.18;97163.75;4995756;28;20036;-82
2021/07/06 08:47:24;;;;;;;9.73;4.15;;;;;;;44.91;19.81;97163.50;4996680;28;20025;-82
2021/07/06 08:49:52;;;;;;;4.53;4.13;;;;;;;43.77;20.40;97164.16;4980080;28;20032;-82
2021/07/06 08:52:18;;;;;;;6.65;4.05;;;;;;;43.35;20.85;97158.84;4996552;28;20018;-81
2021/07/06 08:54:44;;;;;;;7.55;4.30;;;;;;;43.59;21.57;97159.47;4996265;28;20021;-81
2021/07/06 08:57:10;;;;;;;6.50;4.00;;;;;;;43.51;20.83;97158.22;4996599;28;20053;-82
2021/07/06 08:59:40;;;;;;;7.22;4.25;;;;;;;44.82;20.96;97167.44;4996550;28;20025;-81
2021/07/06 09:02:08;;;;;;;16.63;4.53;;;;;;;45.12;19.94;97167.44;4979926;28;20034;-82
2021/07/06 09:04:51;;;;;;;11.07;5.63;;;;;;;45.90;20.42;97171.34;4996193;28;20041;-82
2021/07/06 09:07:18;;;;;;;5.10;3.90;;;;;;;46.50;18.31;97164.88;4996537;28;20042;-83
2021/07/06 09:09:44;;;;;;;6.82;4.10;;;;;;;46.24;19.18;97174.19;4979666;28;20232;-81
2021/07/06 09:12:12;;;;;;;4.20;3.65;;;;;;;45.98;18.56;97162.03;4996190;28;20036;-82
2021/07/06 09:14:41;;;;;;;5.53;4.10;;;;;;;46.16;19.02;97166.56;5013506;28;20510;-83
2021/07/06 09:17:09;;;;;;;5.28;3.90;;;;;;;45.68;19.65;97165.84;4996173;28;20025;-82
2021/07/06 09:19:36;;;;;;;5.93;4.00;;;;;;;46.31;19.68;97174.53;5013682;28;20040;-82
2021/07/06 09:22:19;;;;;;;10.15;4.70;;;;;;;46.11;19.50;97158.25;4995792;28;20025;-76
2021/07/06 09:24:48;;;;;;;6.47;4.03;;;;;;;46.56;18.84;97170.03;4979943;28;20060;-77
2021/07/06 09:27:31;;;;;;;10.85;5.20;;;;;;;46.91;18.00;97159.47;4996112;28;20026;-76
2021/07/06 09:30:05;;;;;;;11.75;3.78;;;;;;;47.60;17.19;97168.50;4979538;28;20046;-76
2021/07/06 09:32:32;;;;;;;3.60;3.30;;;;;;;47.45;17.27;97165.41;4995504;28;20034;-76
2021/07/06 09:35:11;;;;;;;5.75;3.80;;;;;;;47.60;17.41;97168.50;4979161;28;20129;-76
2021/07/06 09:37:55;;;;;;;10.13;3.97;;;;;;;47.74;17.91;97171.09;4979730;28;20113;-76
2021/07/06 09:40:31;;;;;;;4.00;3.60;;;;;;;47.52;17.62;97171.41;4995719;28;20022;-74
2021/07/06 09:43:18;;;;;;;7.50;3.47;;;;;;;47.62;17.45;97168.19;5012745;28;20406;-74
2021/07/06 09:46:08;;;;;;;48.13;5.00;;;;;;;47.75;17.06;97167.06;4995217;28;20037;-75
2021/07/06 09:48:37;;;;;;;3.65;3.35;;;;;;;48.30;16.99;97159.16;4979336;28;20481;-75
2021/07/06 09:51:21;;;;;;;4.75;3.90;;;;;;;48.15;17.27;97161.78;4979017;28;20045;-75
2021/07/06 09:53:51;;;;;;;7.53;3.63;;;;;;;48.50;16.47;97157.47;4994725;28;20478;-76
2021/07/06 09:56:18;;;;;;;6.13;4.20;;;;;;;48.93;16.87;97167.56;4994301;28;20553;-76
2021/07/06 09:58:51;;;;;;;18.67;4.85;;;;;;;49.18;16.11;97152.22;4995180;28;20044;-75
2021/07/06 10:01:16;;;;;;;8.38;5.15;;;;;;;49.80;16.20;97155.56;5012800;28;20049;-75
2021/07/06 10:03:42;;;;;;;6.97;3.85;;;;;;;49.27;16.00;97155.78;4995128;28;20091;-75
2021/07/06 10:06:08;;;;;;;6.03;4.05;;;;;;;48.42;16.56;97152.72;4994562;28;20017;-75
2021/07/06 10:08:34;;;;;;;4.80;4.07;;;;;;;48.52;17.00;97151.44;4978869;28;20168;-78
2021/07/06 10:11:00;;;;;;;7.68;4.30;;;;;;;48.87;16.37;97142.19;4994751;28;20109;-75
2021/07/06 10:13:26;;;;;;;7.70;4.00;;;;;;;49.71;15.75;97154.03;4978631;28;20021;-76
2021/07/06 10:15:53;;;;;;;31.23;4.88;;;;;;;49.61;16.14;97163.84;4994246;28;20042;-76
2021/07/06 10:18:20;;;;;;;4.85;3.80;;;;;;;49.74;16.09;97157.00;4978409;28;20060;-76
2021/07/06 10:20:45;;;;;;;45.00;4.70;;;;;;;48.90;16.03;97135.81;4994652;28;20038;-76
2021/07/06 10:23:11;;;;;;;3.78;3.40;;;;;;;49.14;15.55;97137.88;4978192;28;20029;-76
2021/07/06 10:25:37;;;;;;;5.97;3.50;;;;;;;49.54;15.81;97143.69;4978393;28;20022;-76
2021/07/06 10:28:05;;;;;;;8.40;3.50;;;;;;;49.89;15.61;97146.88;4994567;28;20030;-76
2021/07/06 10:30:39;;;;;;;4.40;4.00;;;;;;;50.43;14.69;97150.16;4978391;28;20108;-75
2021/07/06 10:33:06;;;;;;;6.53;3.42;;;;;;;50.64;14.63;97147.13;4994399;28;20050;-75
2021/07/06 10:35:40;;;;;;;5.90;3.53;;;;;;;50.84;15.39;97157.47;4978252;28;20065;-75
2021/07/06 10:38:33;;;;;;;3.80;3.50;;;;;;;50.81;14.51;97146.78;4994090;28;20034;-76
2021/07/06 10:41:19;;;;;;;4.75;3.78;;;;;;;50.04;14.98;97143.31;4993880;28;20022;-75
2021/07/06 10:43:45;;;;;;;7.75;3.58;;;;;;;49.93;15.96;97147.81;4978109;28;20041;-75
2021/07/06 10:46:19;;;;;;;7.72;3.58;;;;;;;49.90;15.29;97149.34;4994029;28;20026;-75
2021/07/06 10:49:01;;;;;;;4.93;3.22;;;;;;;48.09;16.55;97138.44;4994081;28;20121;-78
2021/07/06 10:51:49;;;;;;;3.40;3.10;;;;;;;47.01;16.67;97127.91;4994132;28;20030;-75
2021/07/06 10:54:22;;;;;;;8.80;4.20;;;;;;;47.75;17.92;97145.19;4977967;28;20091;-75
2021/07/06 10:56:51;;;;;;;3.90;3.60;;;;;;;47.75;17.61;97144.38;4994102;28;20029;-75
2021/07/06 10:59:27;;;;;;;9.77;3.92;;;;;;;48.76;17.30;97152.34;4994134;28;20033;-75
2021/07/06 11:01:54;;;;;;;6.65;5.43;;;;;;;49.13;15.29;97127.69;4994101;28;20037;-75
2021/07/06 11:04:47;;;;;;;4.03;3.47;;;;;;;48.40;15.69;97126.66;4977711;28;20030;-75
2021/07/06 11:07:16;;;;;;;12.35;3.80;;;;;;;47.83;17.54;97134.97;5011368;28;20025;-75
2021/07/06 11:09:41;;;;;;;9.43;7.10;;;;;;;48.72;16.88;97137.22;4993785;28;20038;-75
2021/07/06 11:12:24;;;;;;;3.83;3.47;;;;;;;48.28;16.36;97141.66;4993634;28;20041;-75
2021/07/06 11:14:58;;;;;;;7.78;3.72;;;;;;;46.22;17.98;97136.91;4993865;28;20053;-75
2021/07/06 11:17:34;;;;;;;11.48;3.85;;;;;;;46.41;17.45;97124.38;4993601;28;20477;-75
2021/07/06 11:20:28;;;;;;;7.78;3.58;;;;;;;46.92;17.61;97120.63;4993779;28;20030;-76